createdAt,value
2018-02-16T00:00:51.983Z,56.40
2018-02-16T00:03:19.537Z,50.30
2018-02-16T00:05:47.881Z,47.97
2018-02-16T00:08:16.212Z,67.30
2018-02-16T00:10:43.796Z,30.30
2018-02-16T00:13:11.339Z,42.83
2018-02-16T00:15:38.884Z,46.03
2018-02-16T00:18:07.220Z,41.57
2018-02-16T00:20:35.267Z,36.70
2018-02-16T00:23:02.849Z,37.03
2018-02-16T00:25:30.396Z,28.20
2018-02-16T00:27:58.792Z,34.27
2018-02-16T00:30:27.098Z,32.00
2018-02-16T00:32:54.649Z,38.27
2018-02-16T00:35:22.212Z,39.90
2018-02-16T00:37:50.529Z,33.03
2018-02-16T00:40:18.111Z,39.07
2018-02-16T00:42:45.684Z,43.40
2018-02-16T00:45:13.262Z,36.17
2018-02-16T00:47:40.809Z,44.73
2018-02-16T00:50:08.380Z,37.40
2018-02-16T00:52:35.926Z,30.13
2018-02-16T00:55:03.485Z,41.00
2018-02-16T00:57:31.065Z,31.40
2018-02-16T00:59:58.608Z,36.13
2018-02-16T01:02:26.175Z,48.07
2018-02-16T01:04:53.988Z,54.93
2018-02-16T01:07:21.576Z,45.23
2018-02-16T01:09:49.888Z,44.87
2018-02-16T01:12:17.445Z,33.37
2018-02-16T01:14:45.025Z,35.07
2018-02-16T01:17:12.575Z,28.43
2018-02-16T01:19:40.911Z,32.23
2018-02-16T01:22:08.460Z,30.47
2018-02-16T01:24:36.037Z,32.97
2018-02-16T01:27:03.583Z,25.70
2018-02-16T01:29:31.898Z,34.20
2018-02-16T01:31:59.487Z,31.40
2018-02-16T01:34:27.045Z,24.53
2018-02-16T01:36:54.615Z,37.87
2018-02-16T01:39:22.392Z,27.03
2018-02-16T01:41:49.988Z,32.90
2018-02-16T01:44:17.553Z,30.07
2018-02-16T01:46:45.116Z,28.97
2018-02-16T01:49:12.694Z,24.93
2018-02-16T01:51:40.257Z,32.17
2018-02-16T01:54:07.839Z,27.00
2018-02-16T01:56:35.390Z,34.63
2018-02-16T01:59:02.980Z,29.67
2018-02-16T02:01:30.528Z,37.00
2018-02-16T02:03:58.081Z,36.60
2018-02-16T02:06:26.411Z,38.30
2018-02-16T02:08:53.955Z,25.37
2018-02-16T02:11:21.537Z,41.73
2018-02-16T02:13:49.101Z,38.17
2018-02-16T02:16:16.695Z,51.80
2018-02-16T02:18:44.257Z,55.13
2018-02-16T02:21:11.811Z,56.90
2018-02-16T02:23:39.373Z,56.40
2018-02-16T02:26:06.940Z,50.43
2018-02-16T02:28:35.265Z,57.90
2018-02-16T02:31:02.814Z,69.53
2018-02-16T02:33:30.401Z,41.97
2018-02-16T02:35:57.952Z,55.03
2018-02-16T02:38:25.491Z,41.20
2018-02-16T02:40:53.064Z,41.63
2018-02-16T02:43:20.610Z,36.73
2018-02-16T02:45:48.175Z,35.70
2018-02-16T02:48:15.744Z,36.07
2018-02-16T02:50:43.332Z,37.17
2018-02-16T02:53:11.208Z,33.80
2018-02-16T02:55:38.756Z,41.87
2018-02-16T02:58:06.330Z,34.70
2018-02-16T03:00:33.885Z,52.07
2018-02-16T03:03:01.454Z,50.23
2018-02-16T03:05:29.004Z,47.90
2018-02-16T03:07:56.924Z,43.53
2018-02-16T03:10:24.465Z,26.00
2018-02-16T03:12:52.017Z,42.87
2018-02-16T03:15:20.352Z,44.60
2018-02-16T03:17:47.904Z,34.50
2018-02-16T03:20:15.479Z,22.33
2018-02-16T03:22:43.027Z,21.83
2018-02-16T03:25:11.356Z,36.47
2018-02-16T03:27:39.592Z,37.40
2018-02-16T03:30:07.901Z,45.13
2018-02-16T03:32:35.476Z,42.43
2018-02-16T03:35:03.081Z,51.73
2018-02-16T03:37:30.648Z,52.37
2018-02-16T03:39:58.189Z,43.40
2018-02-16T03:42:26.105Z,41.23
2018-02-16T03:44:53.652Z,32.63
2018-02-16T03:47:21.195Z,40.57
2018-02-16T03:49:49.528Z,42.13
2018-02-16T03:52:17.081Z,52.77
2018-02-16T03:54:44.664Z,51.67
2018-02-16T03:57:12.204Z,46.50
2018-02-16T03:59:39.772Z,40.57
2018-02-16T04:02:07.335Z,49.73
2018-02-16T04:04:34.879Z,45.83
2018-02-16T04:07:02.454Z,58.10
2018-02-16T04:09:30.011Z,57.20
2018-02-16T04:11:57.576Z,62.37
2018-02-16T04:14:25.120Z,50.70
2018-02-16T04:16:52.664Z,57.90
2018-02-16T04:19:21.580Z,55.80
2018-02-16T04:21:49.150Z,46.37
2018-02-16T04:24:16.723Z,50.10
2018-02-16T04:26:44.276Z,45.77
2018-02-16T04:29:11.835Z,51.17
2018-02-16T04:31:39.396Z,46.13
2018-02-16T04:34:06.939Z,51.30
2018-02-16T04:36:34.518Z,48.60
2018-02-16T04:39:02.063Z,49.83
2018-02-16T04:41:29.612Z,49.80
2018-02-16T04:43:57.175Z,57.47
2018-02-16T04:46:25.495Z,47.37
2018-02-16T04:48:53.068Z,52.60
2018-02-16T04:51:20.624Z,49.80
2018-02-16T04:53:48.185Z,41.33
2018-02-16T04:56:15.772Z,42.77
2018-02-16T04:58:43.329Z,47.30
2018-02-16T05:01:11.664Z,48.27
2018-02-16T05:03:39.203Z,37.37
2018-02-16T05:06:06.749Z,29.37
2018-02-16T05:08:35.081Z,28.33
2018-02-16T05:11:02.641Z,27.20
2018-02-16T05:13:30.210Z,30.23
2018-02-16T05:15:57.756Z,37.73
2018-02-16T05:18:26.068Z,37.37
2018-02-16T05:20:53.643Z,40.73
2018-02-16T05:23:21.188Z,45.73
2018-02-16T05:25:49.536Z,44.07
2018-02-16T05:28:17.105Z,57.33
2018-02-16T05:30:44.690Z,51.27
2018-02-16T05:33:12.232Z,52.27
2018-02-16T05:35:39.801Z,47.50
2018-02-16T05:38:07.351Z,55.27
2018-02-16T05:40:34.901Z,50.57
2018-02-16T05:43:03.233Z,50.73
2018-02-16T05:45:30.776Z,44.87
2018-02-16T05:47:58.338Z,44.40
2018-02-16T05:50:26.651Z,48.87
2018-02-16T05:52:54.223Z,46.03
2018-02-16T05:55:21.760Z,52.23
2018-02-16T05:57:50.075Z,49.67
2018-02-16T06:00:18.534Z,58.03
2018-02-16T06:02:46.871Z,59.57
2018-02-16T06:05:14.456Z,59.00
2018-02-16T06:07:42.016Z,55.77
2018-02-16T06:10:09.601Z,52.30
2018-02-16T06:12:37.148Z,60.57
2018-02-16T06:15:04.700Z,40.53
2018-02-16T06:17:32.300Z,53.40
2018-02-16T06:19:59.851Z,52.90
2018-02-16T06:22:27.415Z,60.87
2018-02-16T06:24:55.734Z,61.27
2018-02-16T06:27:23.304Z,44.17
2018-02-16T06:29:50.848Z,50.20
2018-02-16T06:32:18.430Z,42.23
2018-02-16T06:34:46.020Z,40.40
2018-02-16T06:37:13.573Z,42.83
2018-02-16T06:39:41.145Z,51.17
2018-02-16T06:42:08.703Z,42.43
2018-02-16T06:44:37.740Z,47.90
2018-02-16T06:47:05.303Z,31.43
2018-02-16T06:49:36.468Z,49.70
2018-02-16T06:52:06.313Z,42.83
2018-02-16T06:54:33.953Z,53.33
2018-02-16T06:57:14.580Z,45.90
2018-02-16T06:59:43.084Z,48.03
2018-02-16T07:02:10.632Z,42.10
2018-02-16T07:04:38.203Z,37.93
2018-02-16T07:07:05.751Z,41.00
2018-02-16T07:09:48.336Z,28.30
2018-02-16T07:12:38.282Z,28.87
2018-02-16T07:15:32.796Z,36.90
2018-02-16T07:18:10.972Z,36.17
2018-02-16T07:24:06.208Z,42.83
2018-02-16T07:26:34.612Z,35.13
2018-02-16T07:29:02.220Z,40.03
2018-02-16T07:31:37.744Z,36.77
2018-02-16T07:34:08.183Z,36.40
2018-02-16T07:36:36.532Z,37.03
2018-02-16T07:39:05.584Z,31.20
2018-02-16T07:41:33.132Z,33.97
2018-02-16T07:44:02.665Z,31.30
2018-02-16T07:46:30.253Z,32.03
2018-02-16T07:48:57.821Z,30.37
2018-02-16T07:51:25.364Z,29.83
2018-02-16T07:53:52.898Z,28.90
2018-02-16T07:56:20.459Z,30.03
2018-02-16T07:58:48.025Z,31.23
2018-02-16T08:01:15.691Z,28.87
2018-02-16T08:03:43.263Z,30.57
2018-02-16T08:06:10.838Z,27.90
2018-02-16T08:08:38.411Z,28.27
2018-02-16T08:11:05.947Z,25.30
2018-02-16T08:13:34.293Z,26.10
2018-02-16T08:16:01.840Z,21.23
2018-02-16T08:18:29.391Z,21.23
2018-02-16T08:20:57.744Z,24.83
2018-02-16T08:23:26.081Z,20.83
2018-02-16T08:25:53.651Z,22.37
2018-02-16T08:28:21.195Z,22.77
2018-02-16T08:30:48.786Z,20.17
2018-02-16T08:33:16.360Z,20.30
2018-02-16T08:35:43.911Z,21.53
2018-02-16T08:38:11.510Z,18.07
2018-02-16T08:40:39.052Z,17.80
2018-02-16T08:43:06.626Z,18.43
2018-02-16T08:45:35.016Z,18.97
2018-02-16T08:48:02.584Z,21.00
2018-02-16T08:50:30.132Z,18.73
2018-02-16T08:53:03.201Z,17.63
2018-02-16T08:55:30.757Z,16.90
2018-02-16T08:57:59.477Z,17.70
2018-02-16T09:00:27.040Z,17.17
2018-02-16T09:02:54.600Z,17.47
2018-02-16T09:05:22.170Z,20.27
2018-02-16T09:07:49.716Z,18.07
2018-02-16T09:10:18.057Z,16.40
2018-02-16T09:12:45.693Z,16.33
2018-02-16T09:15:13.240Z,16.80
2018-02-16T09:17:41.583Z,17.43
2018-02-16T09:20:09.136Z,15.93
2018-02-16T09:22:36.716Z,15.83
2018-02-16T09:25:04.295Z,17.70
2018-02-16T09:27:32.239Z,17.37
2018-02-16T09:30:00.568Z,16.00
2018-02-16T09:32:28.108Z,14.23
2018-02-16T09:34:55.672Z,14.87
2018-02-16T09:37:23.387Z,14.07
2018-02-16T09:39:51.320Z,14.90
2018-02-16T09:42:19.777Z,13.40
2018-02-16T09:44:47.543Z,12.73
2018-02-16T09:47:15.182Z,12.87
2018-02-16T09:49:42.727Z,13.63
2018-02-16T09:52:11.048Z,12.07
2018-02-16T09:54:38.604Z,12.23
2018-02-16T09:57:06.934Z,10.70
2018-02-16T09:59:34.488Z,11.17
2018-02-16T10:02:02.061Z,10.70
2018-02-16T10:04:29.592Z,9.93
2018-02-16T10:06:57.904Z,10.87
2018-02-16T10:09:25.466Z,11.07
2018-02-16T10:11:53.016Z,10.43
2018-02-16T10:14:21.208Z,9.57
2018-02-16T10:16:49.528Z,9.23
2018-02-16T10:19:17.525Z,8.70
2018-02-16T10:21:45.063Z,8.17
2018-02-16T10:24:12.676Z,7.37
2018-02-16T10:26:40.257Z,7.27
2018-02-16T10:29:07.817Z,6.20
2018-02-16T10:31:35.392Z,6.57
2018-02-16T10:34:02.930Z,7.13
2018-02-16T10:36:30.516Z,6.80
2018-02-16T10:38:58.853Z,6.27
2018-02-16T10:41:26.400Z,6.03
2018-02-16T10:43:53.955Z,6.10
2018-02-16T10:46:21.497Z,6.30
2018-02-16T10:48:49.837Z,5.97
2018-02-16T10:51:17.407Z,5.93
2018-02-16T10:53:45.015Z,5.97
2018-02-16T10:56:12.651Z,5.70
2018-02-16T10:58:40.196Z,6.70
2018-02-16T11:01:14.144Z,5.43
2018-02-16T11:03:41.700Z,5.67
2018-02-16T11:06:13.094Z,5.50
2018-02-16T11:08:46.412Z,5.63
2018-02-16T11:11:13.988Z,4.93
2018-02-16T11:13:42.306Z,5.57
2018-02-16T11:16:09.878Z,5.50
2018-02-16T11:18:37.431Z,4.50
2018-02-16T11:21:05.811Z,5.10
2018-02-16T11:23:34.166Z,4.53
2018-02-16T11:26:02.627Z,4.97
2018-02-16T11:28:30.198Z,4.67
2018-02-16T11:30:57.751Z,4.80
2018-02-16T11:33:25.324Z,4.80
2018-02-16T11:35:52.876Z,4.53
2018-02-16T11:38:20.482Z,5.03
2018-02-16T11:40:48.203Z,4.67
2018-02-16T11:43:15.959Z,5.07
2018-02-16T11:45:43.560Z,4.63
2018-02-16T11:48:12.117Z,4.73
2018-02-16T11:50:39.692Z,5.00
2018-02-16T11:53:07.233Z,4.80
2018-02-16T11:55:34.783Z,4.60
2018-02-16T11:58:03.100Z,4.27
2018-02-16T12:00:30.659Z,4.20
2018-02-16T12:02:58.231Z,4.50
2018-02-16T12:05:25.783Z,4.60
2018-02-16T12:07:53.409Z,4.27
2018-02-16T12:10:21.006Z,4.33
2018-02-16T12:12:48.572Z,4.57
2018-02-16T12:15:16.607Z,4.00
2018-02-16T12:17:44.168Z,4.47
2018-02-16T12:20:12.639Z,4.70
2018-02-16T12:22:40.207Z,3.93
2018-02-16T12:25:07.755Z,4.40
2018-02-16T12:27:35.346Z,4.43
2018-02-16T12:30:03.537Z,4.43
2018-02-16T12:32:31.092Z,4.30
2018-02-16T12:34:58.655Z,4.23
2018-02-16T12:37:26.904Z,3.90
2018-02-16T12:39:54.476Z,4.33
2018-02-16T12:42:22.015Z,3.63
2018-02-16T12:44:50.342Z,4.03
2018-02-16T12:47:17.931Z,4.30
2018-02-16T12:49:45.492Z,4.00
2018-02-16T12:52:13.059Z,4.00
2018-02-16T12:54:40.595Z,4.00
2018-02-16T12:57:08.919Z,4.03
2018-02-16T12:59:37.187Z,3.20
2018-02-16T13:02:04.723Z,3.90
2018-02-16T13:04:32.289Z,4.00
2018-02-16T13:06:59.841Z,3.63
2018-02-16T13:09:27.395Z,3.47
2018-02-16T13:11:54.955Z,3.70
2018-02-16T13:14:22.493Z,3.93
2018-02-16T13:16:51.706Z,4.00
2018-02-16T13:19:20.085Z,3.83
2018-02-16T13:21:47.749Z,3.60
2018-02-16T13:24:15.928Z,3.93
2018-02-16T13:26:43.497Z,3.60
2018-02-16T13:29:11.061Z,3.67
2018-02-16T13:31:38.603Z,3.13
2018-02-16T13:34:06.207Z,2.87
2018-02-16T13:36:33.806Z,3.87
2018-02-16T13:39:03.077Z,3.10
2018-02-16T13:41:30.636Z,3.23
2018-02-16T13:43:58.176Z,3.40
2018-02-16T13:46:26.499Z,3.30
2018-02-16T13:48:54.045Z,3.30
2018-02-16T13:51:21.648Z,3.80
2018-02-16T13:53:49.221Z,3.53
2018-02-16T13:56:16.796Z,3.60
2018-02-16T13:58:44.362Z,3.77
2018-02-16T14:01:11.907Z,3.90
2018-02-16T14:03:39.463Z,3.17
2018-02-16T14:06:07.768Z,3.20
2018-02-16T14:08:35.364Z,3.27
2018-02-16T14:11:02.907Z,3.10
2018-02-16T14:13:30.448Z,2.80
2018-02-16T14:15:58.061Z,3.13
2018-02-16T14:18:25.585Z,3.20
2018-02-16T14:20:53.183Z,2.97
2018-02-16T14:23:21.494Z,3.40
2018-02-16T14:25:49.165Z,2.90
2018-02-16T14:28:16.759Z,3.00
2018-02-16T14:30:44.317Z,3.20
2018-02-16T14:33:11.892Z,2.60
2018-02-16T14:35:39.456Z,2.93
2018-02-16T14:38:07.028Z,2.83
2018-02-16T14:40:34.585Z,2.70
2018-02-16T14:43:02.183Z,2.50
2018-02-16T14:45:29.729Z,2.93
2018-02-16T14:47:57.383Z,2.77
2018-02-16T14:50:25.714Z,2.60
2018-02-16T14:52:54.077Z,2.80
2018-02-16T14:55:22.424Z,3.43
2018-02-16T14:57:49.971Z,2.77
2018-02-16T15:00:17.719Z,3.00
2018-02-16T15:02:45.300Z,2.97
2018-02-16T15:05:12.869Z,3.27
2018-02-16T15:07:40.434Z,2.63
2018-02-16T15:10:07.976Z,2.87
2018-02-16T15:12:36.327Z,3.10
2018-02-16T15:15:04.655Z,2.87
2018-02-16T15:17:32.992Z,3.10
2018-02-16T15:20:00.539Z,3.20
2018-02-16T15:22:28.120Z,4.17
2018-02-16T15:24:55.662Z,4.17
2018-02-16T15:27:23.971Z,2.90
2018-02-16T15:29:51.532Z,2.70
2018-02-16T15:32:19.117Z,3.80
2018-02-16T15:34:46.714Z,3.67
2018-02-16T15:37:14.260Z,6.43
2018-02-16T15:39:41.856Z,4.20
2018-02-16T15:42:09.480Z,3.40
2018-02-16T15:44:37.787Z,3.30
2018-02-16T15:47:05.380Z,3.80
2018-02-16T15:49:32.924Z,3.07
2018-02-16T15:52:00.507Z,2.73
2018-02-16T15:54:28.079Z,3.40
2018-02-16T15:56:55.983Z,3.27
2018-02-16T15:59:24.132Z,3.90
2018-02-16T16:01:51.696Z,3.17
2018-02-16T16:04:19.293Z,3.20
2018-02-16T16:06:47.081Z,3.00
2018-02-16T16:09:15.475Z,3.33
2018-02-16T16:11:43.023Z,4.13
2018-02-16T16:14:10.606Z,2.77
2018-02-16T16:16:38.148Z,3.43
2018-02-16T16:19:06.514Z,3.50
2018-02-16T16:21:34.103Z,4.20
2018-02-16T16:24:02.782Z,5.97
2018-02-16T16:26:31.268Z,5.00
2018-02-16T16:28:58.816Z,4.03
2018-02-16T16:31:27.916Z,4.57
2018-02-16T16:33:55.503Z,3.43
2018-02-16T16:36:23.729Z,3.27
2018-02-16T16:38:52.335Z,2.77
2018-02-16T16:41:19.964Z,3.10
2018-02-16T16:43:47.565Z,3.47
2018-02-16T16:46:15.156Z,3.33
2018-02-16T16:48:42.815Z,3.03
2018-02-16T16:51:11.161Z,4.23
2018-02-16T16:53:38.717Z,5.60
2018-02-16T16:56:06.313Z,5.00
2018-02-16T16:58:34.646Z,4.40
2018-02-16T17:01:02.985Z,4.20
2018-02-16T17:03:30.555Z,3.53
2018-02-16T17:05:58.657Z,3.40
2018-02-16T17:08:26.224Z,2.97
2018-02-16T17:10:53.779Z,3.10
2018-02-16T17:13:22.115Z,3.33
2018-02-16T17:15:50.440Z,3.37
2018-02-16T17:18:18.020Z,3.40
2018-02-16T17:20:45.599Z,3.50
2018-02-16T17:23:13.137Z,3.10
2018-02-16T17:25:40.699Z,3.00
2018-02-16T17:28:09.002Z,3.33
2018-02-16T17:30:36.576Z,3.33
2018-02-16T17:33:04.128Z,3.60
2018-02-16T17:35:32.457Z,3.10
2018-02-16T17:37:59.993Z,3.23
2018-02-16T17:40:28.824Z,3.23
2018-02-16T17:42:56.380Z,3.03
2018-02-16T17:45:23.921Z,3.30
2018-02-16T17:47:51.494Z,3.47
2018-02-16T17:50:19.822Z,3.40
2018-02-16T17:52:47.380Z,3.60
2018-02-16T17:55:16.015Z,3.50
2018-02-16T17:57:44.325Z,3.60
2018-02-16T18:00:11.916Z,3.90
2018-02-16T18:02:40.226Z,3.57
2018-02-16T18:05:07.792Z,3.30
2018-02-16T18:07:35.646Z,3.93
2018-02-16T18:10:03.976Z,3.40
2018-02-16T18:12:31.548Z,3.27
2018-02-16T18:14:59.093Z,4.00
2018-02-16T18:17:26.657Z,3.70
2018-02-16T18:19:54.991Z,3.80
2018-02-16T18:22:22.528Z,3.73
2018-02-16T18:24:50.108Z,4.30
2018-02-16T18:27:17.698Z,3.60
2018-02-16T18:29:45.363Z,3.50
2018-02-16T18:32:12.953Z,3.47
2018-02-16T18:34:40.655Z,4.50
2018-02-16T18:37:09.002Z,3.60
2018-02-16T18:39:36.543Z,3.47
2018-02-16T18:42:04.856Z,3.73
2018-02-16T18:44:32.396Z,4.30
2018-02-16T18:47:01.044Z,4.43
2018-02-16T18:49:28.596Z,4.10
2018-02-16T18:51:56.136Z,4.10
2018-02-16T18:54:24.469Z,4.67
2018-02-16T18:56:52.014Z,4.90
2018-02-16T18:59:19.600Z,5.10
2018-02-16T19:01:47.179Z,5.40
2018-02-16T19:04:15.243Z,4.90
2018-02-16T19:06:43.296Z,5.50
2018-02-16T19:09:10.842Z,5.63
2018-02-16T19:11:39.756Z,5.50
2018-02-16T19:14:07.364Z,5.47
2018-02-16T19:16:35.784Z,5.67
2018-02-16T19:19:03.348Z,6.13
2018-02-16T19:21:30.940Z,5.70
2018-02-16T19:23:58.496Z,6.10
2018-02-16T19:26:26.040Z,6.27
2018-02-16T19:28:54.368Z,5.93
2018-02-16T19:31:21.904Z,6.30
2018-02-16T19:33:49.531Z,5.50
2018-02-16T19:36:17.118Z,6.00
2018-02-16T19:38:44.712Z,5.97
2018-02-16T19:41:13.026Z,6.37
2018-02-16T19:43:40.559Z,6.07
2018-02-16T19:46:08.151Z,6.53
2018-02-16T19:48:35.697Z,6.37
2018-02-16T20:31:54.020Z,6.63
2018-02-16T20:34:22.488Z,5.93
2018-02-16T20:36:50.036Z,6.03
2018-02-16T20:39:17.658Z,6.43
2018-02-16T20:41:46.048Z,5.83
2018-02-16T20:44:13.831Z,6.10
2018-02-16T20:46:41.415Z,5.97
2018-02-16T20:49:08.956Z,6.33
2018-02-16T20:51:37.302Z,6.97
2018-02-16T20:54:04.855Z,7.20
2018-02-16T20:56:32.400Z,6.90
2018-02-16T20:59:00.736Z,6.93
2018-02-16T21:01:28.283Z,7.20
2018-02-16T21:03:55.840Z,7.30
2018-02-16T21:06:23.398Z,8.57
2018-02-16T21:08:51.772Z,9.07
2018-02-16T21:11:19.323Z,7.97
2018-02-16T21:13:46.885Z,7.77
2018-02-16T21:16:14.481Z,8.27
2018-02-16T21:18:42.033Z,8.23
2018-02-16T21:21:09.606Z,7.77
2018-02-16T21:23:37.144Z,7.73
2018-02-16T21:26:04.697Z,8.00
2018-02-16T21:28:32.267Z,8.40
2018-02-16T21:31:00.592Z,7.60
2018-02-16T21:33:28.151Z,7.23
2018-02-16T21:35:55.751Z,7.77
2018-02-16T21:38:23.343Z,7.60
2018-02-16T21:40:50.883Z,7.60
2018-02-16T21:43:18.423Z,7.67
2018-02-16T21:45:46.002Z,7.50
2018-02-16T21:48:13.574Z,7.80
2018-02-16T21:50:41.147Z,8.37
2018-02-16T21:53:08.692Z,7.03
2018-02-16T21:55:36.999Z,7.63
2018-02-16T21:58:04.580Z,7.97
2018-02-16T22:00:32.124Z,7.73
2018-02-16T22:03:00.464Z,8.70
2018-02-16T22:05:28.005Z,8.60
2018-02-16T22:07:55.596Z,8.47
2018-02-16T22:10:23.144Z,7.83
2018-02-16T22:12:50.732Z,8.03
2018-02-16T22:15:18.281Z,7.83
2018-02-16T22:17:45.880Z,8.07
2018-02-16T22:20:13.452Z,8.57
2018-02-16T22:22:41.043Z,8.77
2018-02-16T22:25:08.592Z,7.80
2018-02-16T22:27:36.134Z,8.30
2018-02-16T22:30:04.519Z,8.30
2018-02-16T22:32:32.832Z,8.27
2018-02-16T22:35:00.404Z,8.43
2018-02-16T22:37:27.955Z,8.20
2018-02-16T22:39:56.298Z,7.73
2018-02-16T22:42:24.611Z,8.67
2018-02-16T22:44:52.933Z,8.50
2018-02-16T22:47:20.507Z,7.87
2018-02-16T22:49:48.067Z,8.60
2018-02-16T22:52:15.652Z,8.70
2018-02-16T22:54:43.196Z,7.73
2018-02-16T22:57:11.520Z,8.27
2018-02-16T22:59:39.063Z,8.47
2018-02-16T23:02:07.400Z,8.03
2018-02-16T23:04:34.931Z,7.77
2018-02-16T23:07:02.471Z,7.57
2018-02-16T23:09:30.044Z,7.67
2018-02-16T23:11:57.584Z,7.50
2018-02-16T23:14:25.169Z,7.47
2018-02-16T23:16:52.736Z,7.63
2018-02-16T23:19:20.308Z,7.67
2018-02-16T23:21:47.880Z,7.60
2018-02-16T23:24:17.173Z,7.63
2018-02-16T23:26:44.792Z,8.40
2018-02-16T23:29:12.338Z,8.30
2018-02-16T23:31:39.906Z,8.10
2018-02-16T23:34:07.444Z,7.77
2018-02-16T23:36:35.008Z,8.37
2018-02-16T23:39:02.600Z,7.70
2018-02-16T23:41:30.139Z,8.03
2018-02-16T23:43:57.646Z,8.87
2018-02-16T23:46:25.954Z,8.57
2018-02-16T23:48:53.516Z,8.17
2018-02-16T23:51:21.068Z,7.93
2018-02-16T23:53:48.908Z,7.90
2018-02-16T23:56:16.480Z,8.70
2018-02-16T23:58:44.060Z,8.77
